sensor_id;sensor_type;location;lat;lon;timestamp;pressure;altitude;pressure_sealevel;temperature;humidity
84310;BME280;74488;49.036;11.472;2024-03-08T00:00:40;97435.72;;;-0.49;89.10
84310;BME280;74488;49.036;11.472;2024-03-08T00:01:43;97438.38;;;-0.51;88.78
84310;BME280;74488;49.036;11.472;2024-03-08T00:02:47;97429.72;;;-0.54;89.13
84310;BME280;74488;49.036;11.472;2024-03-08T00:03:49;97432.34;;;-0.56;88.40
84310;BME280;74488;49.036;11.472;2024-03-08T00:04:50;97428.00;;;-0.57;88.90
84310;BME280;74488;49.036;11.472;2024-03-08T00:05:52;97405.53;;;-0.70;88.71
84310;BME280;74488;49.036;11.472;2024-03-08T00:06:53;97327.84;;;-1.19;88.80
84310;BME280;74488;49.036;11.472;2024-03-08T00:07:55;97431.56;;;-0.61;89.11
84310;BME280;74488;49.036;11.472;2024-03-08T00:08:56;97428.94;;;-0.61;88.90
84310;BME280;74488;49.036;11.472;2024-03-08T00:09:58;97426.38;;;-0.64;89.50
84310;BME280;74488;49.036;11.472;2024-03-08T00:11:00;97427.34;;;-0.68;89.58
84310;BME280;74488;49.036;11.472;2024-03-08T00:12:01;97422.16;;;-0.73;89.58
84310;BME280;74488;49.036;11.472;2024-03-08T00:13:03;97426.47;;;-0.70;89.10
84310;BME280;74488;49.036;11.472;2024-03-08T00:14:05;97423.81;;;-0.66;88.79
84310;BME280;74488;49.036;11.472;2024-03-08T00:15:09;97427.13;;;-0.57;89.24
84310;BME280;74488;49.036;11.472;2024-03-08T00:16:12;97421.97;;;-0.62;88.77
84310;BME280;74488;49.036;11.472;2024-03-08T00:17:13;97428.03;;;-0.59;88.90
84310;BME280;74488;49.036;11.472;2024-03-08T00:18:17;97426.22;;;-0.55;88.95
84310;BME280;74488;49.036;11.472;2024-03-08T00:19:18;97422.81;;;-0.60;88.33
84310;BME280;74488;49.036;11.472;2024-03-08T00:20:20;97419.44;;;-0.65;88.20
84310;BME280;74488;49.036;11.472;2024-03-08T00:21:21;97421.28;;;-0.72;88.75
84310;BME280;74488;49.036;11.472;2024-03-08T00:22:23;97422.06;;;-0.67;89.09
84310;BME280;74488;49.036;11.472;2024-03-08T00:23:24;97421.25;;;-0.70;88.69
84310;BME280;74488;49.036;11.472;2024-03-08T00:24:26;97419.59;;;-0.74;89.13
84310;BME280;74488;49.036;11.472;2024-03-08T00:25:27;97417.84;;;-0.75;89.24
84310;BME280;74488;49.036;11.472;2024-03-08T00:26:29;97420.53;;;-0.78;89.75
84310;BME280;74488;49.036;11.472;2024-03-08T00:27:31;97415.34;;;-0.81;89.71
84310;BME280;74488;49.036;11.472;2024-03-08T00:28:32;97412.69;;;-0.80;89.92
84310;BME280;74488;49.036;11.472;2024-03-08T00:29:35;97415.38;;;-0.84;89.41
84310;BME280;74488;49.036;11.472;2024-03-08T00:30:37;97412.81;;;-0.87;89.28
84310;BME280;74488;49.036;11.472;2024-03-08T00:31:39;97418.97;;;-0.90;90.31
84310;BME280;74488;49.036;11.472;2024-03-08T00:32:40;97409.41;;;-0.92;89.86
84310;BME280;74488;49.036;11.472;2024-03-08T00:33:42;97413.78;;;-0.91;89.84
84310;BME280;74488;49.036;11.472;2024-03-08T00:34:44;97413.78;;;-0.91;90.00
84310;BME280;74488;49.036;11.472;2024-03-08T00:35:45;97403.31;;;-0.93;90.74
84310;BME280;74488;49.036;11.472;2024-03-08T00:36:47;97393.84;;;-1.01;90.84
84310;BME280;74488;49.036;11.472;2024-03-08T00:37:50;97398.22;;;-0.99;90.38
84310;BME280;74488;49.036;11.472;2024-03-08T00:38:51;97391.13;;;-0.94;89.97
84310;BME280;74488;49.036;11.472;2024-03-08T00:39:53;97401.59;;;-0.94;89.99
84310;BME280;74488;49.036;11.472;2024-03-08T00:40:55;97402.47;;;-0.95;90.29
84310;BME280;74488;49.036;11.472;2024-03-08T00:41:58;97401.56;;;-0.92;89.97
84310;BME280;74488;49.036;11.472;2024-03-08T00:42:59;97396.31;;;-0.91;89.89
84310;BME280;74488;49.036;11.472;2024-03-08T00:44:01;97401.59;;;-0.94;89.80
84310;BME280;74488;49.036;11.472;2024-03-08T00:45:02;97401.56;;;-0.92;89.66
84310;BME280;74488;49.036;11.472;2024-03-08T00:46:04;97401.59;;;-0.94;90.38
84310;BME280;74488;49.036;11.472;2024-03-08T00:47:06;97383.53;;;-1.07;90.02
84310;BME280;74488;49.036;11.472;2024-03-08T00:48:07;97405.88;;;-0.88;90.23
84310;BME280;74488;49.036;11.472;2024-03-08T00:49:09;97398.88;;;-0.89;90.33
84310;BME280;74488;49.036;11.472;2024-03-08T00:50:10;97396.28;;;-0.89;89.85
84310;BME280;74488;49.036;11.472;2024-03-08T00:51:12;97395.41;;;-0.90;90.29
84310;BME280;74488;49.036;11.472;2024-03-08T00:52:14;97394.63;;;-0.93;89.89
84310;BME280;74488;49.036;11.472;2024-03-08T00:53:15;97389.34;;;-0.92;90.06
84310;BME280;74488;49.036;11.472;2024-03-08T00:54:18;97342.72;;;-1.21;90.11
84310;BME280;74488;49.036;11.472;2024-03-08T00:55:19;97394.72;;;-0.99;90.30
84310;BME280;74488;49.036;11.472;2024-03-08T00:56:21;97392.81;;;-0.91;89.89
84310;BME280;74488;49.036;11.472;2024-03-08T00:57:22;97384.16;;;-0.93;90.51
84310;BME280;74488;49.036;11.472;2024-03-08T00:58:24;97389.38;;;-0.95;90.08
84310;BME280;74488;49.036;11.472;2024-03-08T00:59:25;97389.44;;;-0.96;90.01
84310;BME280;74488;49.036;11.472;2024-03-08T01:00:27;97384.19;;;-0.98;90.76
84310;BME280;74488;49.036;11.472;2024-03-08T01:01:29;97379.88;;;-1.00;89.92
84310;BME280;74488;49.036;11.472;2024-03-08T01:02:31;97371.31;;;-1.10;90.56
84310;BME280;74488;49.036;11.472;2024-03-08T01:03:32;97379.88;;;-1.00;90.89
84310;BME280;74488;49.036;11.472;2024-03-08T01:04:35;97380.75;;;-1.00;90.75
84310;BME280;74488;49.036;11.472;2024-03-08T01:05:37;97381.56;;;-0.96;90.23
84310;BME280;74488;49.036;11.472;2024-03-08T01:06:38;97372.84;;;-0.98;89.95
84310;BME280;74488;49.036;11.472;2024-03-08T01:07:40;97365.81;;;-0.93;90.34
84310;BME280;74488;49.036;11.472;2024-03-08T01:08:41;97369.31;;;-0.94;90.21
84310;BME280;74488;49.036;11.472;2024-03-08T01:09:43;97375.41;;;-0.94;89.78
84310;BME280;74488;49.036;11.472;2024-03-08T01:10:45;97365.06;;;-1.01;90.15
84310;BME280;74488;49.036;11.472;2024-03-08T01:11:46;97364.28;;;-1.06;90.67
84310;BME280;74488;49.036;11.472;2024-03-08T01:12:48;97348.81;;;-1.20;91.33
84310;BME280;74488;49.036;11.472;2024-03-08T01:13:51;97360.78;;;-1.07;90.93
84310;BME280;74488;49.036;11.472;2024-03-08T01:14:52;97371.16;;;-1.01;90.85
84310;BME280;74488;49.036;11.472;2024-03-08T01:15:54;97373.84;;;-1.04;90.93
84310;BME280;74488;49.036;11.472;2024-03-08T01:16:56;97371.25;;;-1.05;91.29
84310;BME280;74488;49.036;11.472;2024-03-08T01:17:57;97362.50;;;-1.04;90.68
84310;BME280;74488;49.036;11.472;2024-03-08T01:19:00;97352.81;;;-0.99;90.49
84310;BME280;74488;49.036;11.472;2024-03-08T01:20:02;97360.69;;;-1.01;90.33
84310;BME280;74488;49.036;11.472;2024-03-08T01:21:04;97307.28;;;-1.40;90.26
84310;BME280;74488;49.036;11.472;2024-03-08T01:22:06;97370.34;;;-1.04;90.51
84310;BME280;74488;49.036;11.472;2024-03-08T01:23:08;97371.34;;;-1.11;90.70
84310;BME280;74488;49.036;11.472;2024-03-08T01:24:10;97374.06;;;-1.18;91.06
84310;BME280;74488;49.036;11.472;2024-03-08T01:25:12;97346.44;;;-1.35;90.23
84310;BME280;74488;49.036;11.472;2024-03-08T01:26:14;97361.13;;;-1.25;90.78
84310;BME280;74488;49.036;11.472;2024-03-08T01:27:16;97365.44;;;-1.23;91.03
84310;BME280;74488;49.036;11.472;2024-03-08T01:28:17;97362.78;;;-1.21;91.05
84310;BME280;74488;49.036;11.472;2024-03-08T01:29:19;97345.47;;;-1.30;91.10
84310;BME280;74488;49.036;11.472;2024-03-08T01:30:21;97359.44;;;-1.28;90.94
84310;BME280;74488;49.036;11.472;2024-03-08T01:31:22;97358.56;;;-1.28;91.51
84310;BME280;74488;49.036;11.472;2024-03-08T01:32:24;97350.72;;;-1.30;91.23
84310;BME280;74488;49.036;11.472;2024-03-08T01:33:26;97349.00;;;-1.32;90.99
84310;BME280;74488;49.036;11.472;2024-03-08T01:34:28;97292.06;;;-1.67;91.38
84310;BME280;74488;49.036;11.472;2024-03-08T01:35:30;97357.63;;;-1.26;92.04
84310;BME280;74488;49.036;11.472;2024-03-08T01:36:32;97351.56;;;-1.28;91.88
84310;BME280;74488;49.036;11.472;2024-03-08T01:37:33;97351.56;;;-1.28;92.05
84310;BME280;74488;49.036;11.472;2024-03-08T01:38:35;97339.22;;;-1.20;92.07
84310;BME280;74488;49.036;11.472;2024-03-08T01:39:37;97340.78;;;-1.09;91.68
84310;BME280;74488;49.036;11.472;2024-03-08T01:40:39;97310.53;;;-1.26;91.18
84310;BME280;74488;49.036;11.472;2024-03-08T01:41:42;97336.50;;;-1.13;91.42
84310;BME280;74488;49.036;11.472;2024-03-08T01:42:43;97337.44;;;-1.18;91.60
84310;BME280;74488;49.036;11.472;2024-03-08T01:43:46;97337.53;;;-1.22;91.21
84310;BME280;74488;49.036;11.472;2024-03-08T01:44:47;97311.66;;;-1.40;91.13
84310;BME280;74488;49.036;11.472;2024-03-08T01:45:49;97338.59;;;-1.34;91.50
84310;BME280;74488;49.036;11.472;2024-03-08T01:46:52;97332.53;;;-1.36;91.18
84310;BME280;74488;49.036;11.472;2024-03-08T01:47:54;97335.19;;;-1.40;91.20
84310;BME280;74488;49.036;11.472;2024-03-08T01:48:56;97335.19;;;-1.40;91.85
84310;BME280;74488;49.036;11.472;2024-03-08T01:50:01;97338.72;;;-1.41;91.84
84310;BME280;74488;49.036;11.472;2024-03-08T01:51:05;97321.28;;;-1.44;91.98
84310;BME280;74488;49.036;11.472;2024-03-08T01:52:07;97335.97;;;-1.35;91.69
84310;BME280;74488;49.036;11.472;2024-03-08T01:53:09;97326.34;;;-1.32;91.90
84310;BME280;74488;49.036;11.472;2024-03-08T01:54:15;97324.63;;;-1.33;92.42
84310;BME280;74488;49.036;11.472;2024-03-08T01:55:18;97321.16;;;-1.35;91.94
84310;BME280;74488;49.036;11.472;2024-03-08T01:56:19;97316.78;;;-1.34;91.69
84310;BME280;74488;49.036;11.472;2024-03-08T01:57:21;97318.59;;;-1.38;92.37
84310;BME280;74488;49.036;11.472;2024-03-08T01:58:23;97312.53;;;-1.40;92.14
84310;BME280;74488;49.036;11.472;2024-03-08T01:59:25;97318.69;;;-1.44;92.51
84310;BME280;74488;49.036;11.472;2024-03-08T02:00:28;97321.38;;;-1.47;92.21
84310;BME280;74488;49.036;11.472;2024-03-08T02:01:31;97318.78;;;-1.48;92.34
84310;BME280;74488;49.036;11.472;2024-03-08T02:02:35;97314.44;;;-1.51;92.39
84310;BME280;74488;49.036;11.472;2024-03-08T02:03:38;97314.53;;;-1.55;91.94
84310;BME280;74488;49.036;11.472;2024-03-08T02:04:40;97314.47;;;-1.52;92.63
84310;BME280;74488;49.036;11.472;2024-03-08T02:05:41;97313.63;;;-1.53;92.17
84310;BME280;74488;49.036;11.472;2024-03-08T02:06:43;97314.50;;;-1.54;92.96
84310;BME280;74488;49.036;11.472;2024-03-08T02:07:46;97311.00;;;-1.53;92.89
84310;BME280;74488;49.036;11.472;2024-03-08T02:08:47;97311.84;;;-1.52;92.50
84310;BME280;74488;49.036;11.472;2024-03-08T02:09:50;97309.19;;;-1.48;92.79
84310;BME280;74488;49.036;11.472;2024-03-08T02:10:52;97311.69;;;-1.42;92.28
84310;BME280;74488;49.036;11.472;2024-03-08T02:11:55;97302.16;;;-1.44;92.17
84310;BME280;74488;49.036;11.472;2024-03-08T02:12:57;97293.31;;;-1.39;91.84
84310;BME280;74488;49.036;11.472;2024-03-08T02:13:59;97299.38;;;-1.37;91.92
84310;BME280;74488;49.036;11.472;2024-03-08T02:15:01;97296.81;;;-1.40;92.07
84310;BME280;74488;49.036;11.472;2024-03-08T02:16:03;97298.50;;;-1.36;91.79
84310;BME280;74488;49.036;11.472;2024-03-08T02:17:05;97292.47;;;-1.39;91.99
84310;BME280;74488;49.036;11.472;2024-03-08T02:18:07;97295.03;;;-1.38;91.59
84310;BME280;74488;49.036;11.472;2024-03-08T02:19:09;97297.59;;;-1.35;91.88
84310;BME280;74488;49.036;11.472;2024-03-08T02:20:11;97296.81;;;-1.40;91.69
84310;BME280;74488;49.036;11.472;2024-03-08T02:21:17;97294.22;;;-1.40;92.02
84310;BME280;74488;49.036;11.472;2024-03-08T02:22:22;97269.22;;;-1.56;91.75
84310;BME280;74488;49.036;11.472;2024-03-08T02:23:24;97297.75;;;-1.42;92.04
84310;BME280;74488;49.036;11.472;2024-03-08T02:24:29;97288.19;;;-1.45;92.00
84310;BME280;74488;49.036;11.472;2024-03-08T02:25:31;97290.97;;;-1.54;92.05
84310;BME280;74488;49.036;11.472;2024-03-08T02:26:33;97290.09;;;-1.53;92.25
84310;BME280;74488;49.036;11.472;2024-03-08T02:27:35;97292.75;;;-1.57;92.66
84310;BME280;74488;49.036;11.472;2024-03-08T02:28:36;97298.03;;;-1.60;92.76
84310;BME280;74488;49.036;11.472;2024-03-08T02:29:38;97284.13;;;-1.61;92.33
84310;BME280;74488;49.036;11.472;2024-03-08T02:30:42;97292.84;;;-1.62;92.96
84310;BME280;74488;49.036;11.472;2024-03-08T02:31:43;97293.75;;;-1.66;92.35
84310;BME280;74488;49.036;11.472;2024-03-08T02:32:45;97292.94;;;-1.68;92.80
84310;BME280;74488;49.036;11.472;2024-03-08T02:33:46;97281.66;;;-1.70;93.29
84310;BME280;74488;49.036;11.472;2024-03-08T02:34:49;97286.88;;;-1.70;93.48
84310;BME280;74488;49.036;11.472;2024-03-08T02:35:51;97292.97;;;-1.71;93.35
84310;BME280;74488;49.036;11.472;2024-03-08T02:36:52;97283.44;;;-1.73;93.70
84310;BME280;74488;49.036;11.472;2024-03-08T02:37:54;97284.28;;;-1.71;94.60
84310;BME280;74488;49.036;11.472;2024-03-08T02:38:55;97285.09;;;-1.68;93.63
84310;BME280;74488;49.036;11.472;2024-03-08T02:39:57;97283.34;;;-1.69;93.57
84310;BME280;74488;49.036;11.472;2024-03-08T02:40:58;97291.19;;;-1.69;93.84
84310;BME280;74488;49.036;11.472;2024-03-08T02:42:00;97290.38;;;-1.71;93.57
84310;BME280;74488;49.036;11.472;2024-03-08T02:43:02;97292.03;;;-1.65;93.48
84310;BME280;74488;49.036;11.472;2024-03-08T02:44:03;97279.72;;;-1.59;93.50
84310;BME280;74488;49.036;11.472;2024-03-08T02:45:05;97276.09;;;-1.52;93.66
84310;BME280;74488;49.036;11.472;2024-03-08T02:46:07;97243.25;;;-1.68;93.55
84310;BME280;74488;49.036;11.472;2024-03-08T02:47:09;97284.63;;;-1.41;93.00
84310;BME280;74488;49.036;11.472;2024-03-08T02:48:11;97276.88;;;-1.45;92.78
84310;BME280;74488;49.036;11.472;2024-03-08T02:49:13;97273.47;;;-1.52;92.92
84310;BME280;74488;49.036;11.472;2024-03-08T02:50:15;97279.69;;;-1.57;93.28
84310;BME280;74488;49.036;11.472;2024-03-08T02:51:17;97280.59;;;-1.60;93.61
84310;BME280;74488;49.036;11.472;2024-03-08T02:52:19;97271.03;;;-1.61;93.66
84310;BME280;74488;49.036;11.472;2024-03-08T02:53:22;97271.03;;;-1.62;93.87
84310;BME280;74488;49.036;11.472;2024-03-08T02:54:25;97267.56;;;-1.63;94.07
84310;BME280;74488;49.036;11.472;2024-03-08T02:55:27;97277.19;;;-1.65;93.97
84310;BME280;74488;49.036;11.472;2024-03-08T02:56:29;97266.72;;;-1.65;93.92
84310;BME280;74488;49.036;11.472;2024-03-08T02:57:31;97267.50;;;-1.58;93.51
84310;BME280;74488;49.036;11.472;2024-03-08T02:58:33;97268.44;;;-1.61;93.59
84310;BME280;74488;49.036;11.472;2024-03-08T02:59:34;97267.56;;;-1.63;93.77
84310;BME280;74488;49.036;11.472;2024-03-08T03:00:36;97264.13;;;-1.65;93.58
84310;BME280;74488;49.036;11.472;2024-03-08T03:01:38;97279.81;;;-1.66;93.95
84310;BME280;74488;49.036;11.472;2024-03-08T03:02:40;97278.94;;;-1.64;93.66
84310;BME280;74488;49.036;11.472;2024-03-08T03:03:42;97257.19;;;-1.69;93.45
84310;BME280;74488;49.036;11.472;2024-03-08T03:04:44;97264.09;;;-1.63;94.01
84310;BME280;74488;49.036;11.472;2024-03-08T03:05:45;97272.88;;;-1.69;93.96
84310;BME280;74488;49.036;11.472;2024-03-08T03:06:49;97267.72;;;-1.72;94.22
84310;BME280;74488;49.036;11.472;2024-03-08T03:07:51;97271.22;;;-1.73;94.13
84310;BME280;74488;49.036;11.472;2024-03-08T03:08:53;97268.66;;;-1.76;94.21
84310;BME280;74488;49.036;11.472;2024-03-08T03:09:55;97263.41;;;-1.75;93.86
84310;BME280;74488;49.036;11.472;2024-03-08T03:10:56;97271.25;;;-1.75;93.89
84310;BME280;74488;49.036;11.472;2024-03-08T03:12:01;97263.34;;;-1.71;94.16
84310;BME280;74488;49.036;11.472;2024-03-08T03:13:02;97266.88;;;-1.72;93.89
84310;BME280;74488;49.036;11.472;2024-03-08T03:14:05;97271.22;;;-1.73;94.40
84310;BME280;74488;49.036;11.472;2024-03-08T03:15:08;97267.78;;;-1.75;94.21
84310;BME280;74488;49.036;11.472;2024-03-08T03:16:10;97267.78;;;-1.75;93.75
84310;BME280;74488;49.036;11.472;2024-03-08T03:17:11;97273.06;;;-1.78;94.31
84310;BME280;74488;49.036;11.472;2024-03-08T03:18:13;97266.09;;;-1.79;93.92
84310;BME280;74488;49.036;11.472;2024-03-08T03:19:15;97259.13;;;-1.80;94.04
84310;BME280;74488;49.036;11.472;2024-03-08T03:20:17;97261.78;;;-1.83;94.28
84310;BME280;74488;49.036;11.472;2024-03-08T03:21:28;97223.81;;;-2.04;93.95
84310;BME280;74488;49.036;11.472;2024-03-08T03:22:33;97263.56;;;-1.85;94.37
84310;BME280;74488;49.036;11.472;2024-03-08T03:23:36;97259.19;;;-1.83;94.24
84310;BME280;74488;49.036;11.472;2024-03-08T03:24:38;97223.81;;;-2.05;94.09
84310;BME280;74488;49.036;11.472;2024-03-08T03:25:40;97233.31;;;-1.98;94.29
84310;BME280;74488;49.036;11.472;2024-03-08T03:26:43;97257.47;;;-1.84;94.67
84310;BME280;74488;49.036;11.472;2024-03-08T03:27:45;97255.63;;;-1.79;94.32
84310;BME280;74488;49.036;11.472;2024-03-08T03:28:47;97238.44;;;-1.92;94.39
84310;BME280;74488;49.036;11.472;2024-03-08T03:29:49;97258.25;;;-1.79;93.88
84310;BME280;74488;49.036;11.472;2024-03-08T03:30:52;97261.66;;;-1.74;94.08
84310;BME280;74488;49.036;11.472;2024-03-08T03:31:54;97252.09;;;-1.77;94.14
84310;BME280;74488;49.036;11.472;2024-03-08T03:32:55;97257.25;;;-1.72;93.89
84310;BME280;74488;49.036;11.472;2024-03-08T03:34:00;97249.44;;;-1.73;94.17
84310;BME280;74488;49.036;11.472;2024-03-08T03:35:05;97255.56;;;-1.75;94.24
84310;BME280;74488;49.036;11.472;2024-03-08T03:36:07;97246.16;;;-1.85;93.78
84310;BME280;74488;49.036;11.472;2024-03-08T03:37:11;97254.78;;;-1.80;93.58
84310;BME280;74488;49.036;11.472;2024-03-08T03:38:14;97256.53;;;-1.80;94.24
84310;BME280;74488;49.036;11.472;2024-03-08T03:39:15;97256.56;;;-1.82;93.78
84310;BME280;74488;49.036;11.472;2024-03-08T03:40:18;97253.13;;;-1.84;94.06
84310;BME280;74488;49.036;11.472;2024-03-08T03:41:20;97250.50;;;-1.85;93.94
84310;BME280;74488;49.036;11.472;2024-03-08T03:42:22;97246.19;;;-1.88;93.95
84310;BME280;74488;49.036;11.472;2024-03-08T03:43:25;97253.13;;;-1.85;93.85
84310;BME280;74488;49.036;11.472;2024-03-08T03:44:28;97250.47;;;-1.82;94.21
84310;BME280;74488;49.036;11.472;2024-03-08T03:45:30;97246.09;;;-1.83;93.95
84310;BME280;74488;49.036;11.472;2024-03-08T03:46:35;97240.91;;;-1.85;94.50
84310;BME280;74488;49.036;11.472;2024-03-08T03:47:37;97240.09;;;-1.87;93.64
84310;BME280;74488;49.036;11.472;2024-03-08T03:48:39;97233.94;;;-1.84;93.85
84310;BME280;74488;49.036;11.472;2024-03-08T03:49:41;97232.97;;;-1.80;93.68
84310;BME280;74488;49.036;11.472;2024-03-08T03:50:43;97234.72;;;-1.81;94.02
84310;BME280;74488;49.036;11.472;2024-03-08T03:51:45;97210.56;;;-1.95;94.11
84310;BME280;74488;49.036;11.472;2024-03-08T03:52:48;97250.41;;;-1.81;93.59
84310;BME280;74488;49.036;11.472;2024-03-08T03:53:49;97236.56;;;-1.84;93.96
84310;BME280;74488;49.036;11.472;2024-03-08T03:54:51;97235.69;;;-1.86;93.77
84310;BME280;74488;49.036;11.472;2024-03-08T03:55:52;97245.28;;;-1.85;94.28
84310;BME280;74488;49.036;11.472;2024-03-08T03:56:54;97233.09;;;-1.86;94.13
84310;BME280;74488;49.036;11.472;2024-03-08T03:57:57;97204.66;;;-2.06;94.02
84310;BME280;74488;49.036;11.472;2024-03-08T03:59:00;97195.25;;;-2.16;94.01
84310;BME280;74488;49.036;11.472;2024-03-08T04:00:02;97234.97;;;-1.94;93.94
84310;BME280;74488;49.036;11.472;2024-03-08T04:01:04;97235.03;;;-1.99;93.77
84310;BME280;74488;49.036;11.472;2024-03-08T04:02:06;97241.09;;;-1.97;93.97
84310;BME280;74488;49.036;11.472;2024-03-08T04:03:07;97236.75;;;-1.96;93.82
84310;BME280;74488;49.036;11.472;2024-03-08T04:04:10;97198.69;;;-2.12;94.04
84310;BME280;74488;49.036;11.472;2024-03-08T04:05:13;97237.38;;;-1.82;93.43
84310;BME280;74488;49.036;11.472;2024-03-08T04:06:15;97217.53;;;-1.92;92.98
84310;BME280;74488;49.036;11.472;2024-03-08T04:07:16;97237.38;;;-1.82;92.79
84310;BME280;74488;49.036;11.472;2024-03-08T04:08:18;97237.47;;;-1.88;93.44
84310;BME280;74488;49.036;11.472;2024-03-08T04:09:19;97238.47;;;-1.95;93.15
84310;BME280;74488;49.036;11.472;2024-03-08T04:10:21;97239.41;;;-1.98;93.59
84310;BME280;74488;49.036;11.472;2024-03-08T04:11:22;97229.81;;;-2.00;93.64
84310;BME280;74488;49.036;11.472;2024-03-08T04:12:24;97222.94;;;-2.04;93.12
84310;BME280;74488;49.036;11.472;2024-03-08T04:13:26;97229.94;;;-2.06;93.23
84310;BME280;74488;49.036;11.472;2024-03-08T04:14:27;97221.28;;;-2.10;93.29
84310;BME280;74488;49.036;11.472;2024-03-08T04:15:29;97230.75;;;-2.03;93.47
84310;BME280;74488;49.036;11.472;2024-03-08T04:16:32;97230.78;;;-2.04;93.36
84310;BME280;74488;49.036;11.472;2024-03-08T04:17:34;97230.81;;;-2.07;93.55
84310;BME280;74488;49.036;11.472;2024-03-08T04:18:38;97231.75;;;-2.10;93.58
84310;BME280;74488;49.036;11.472;2024-03-08T04:19:40;97224.88;;;-2.15;93.99
84310;BME280;74488;49.036;11.472;2024-03-08T04:20:41;97228.31;;;-2.13;93.81
84310;BME280;74488;49.036;11.472;2024-03-08T04:21:43;97227.38;;;-2.11;94.05
84310;BME280;74488;49.036;11.472;2024-03-08T04:22:45;97164.25;;;-2.39;94.02
84310;BME280;74488;49.036;11.472;2024-03-08T04:23:48;97227.28;;;-2.03;94.28
84310;BME280;74488;49.036;11.472;2024-03-08T04:24:49;97220.28;;;-2.03;94.40
84310;BME280;74488;49.036;11.472;2024-03-08T04:25:52;97224.69;;;-2.03;94.55
84310;BME280;74488;49.036;11.472;2024-03-08T04:26:53;97222.94;;;-2.04;94.60
84310;BME280;74488;49.036;11.472;2024-03-08T04:27:56;97219.44;;;-2.03;94.52
84310;BME280;74488;49.036;11.472;2024-03-08T04:28:57;97210.66;;;-1.98;94.58
84310;BME280;74488;49.036;11.472;2024-03-08T04:29:59;97215.84;;;-1.96;94.17
84310;BME280;74488;49.036;11.472;2024-03-08T04:31:00;97212.38;;;-1.98;94.06
84310;BME280;74488;49.036;11.472;2024-03-08T04:32:04;97217.63;;;-2.00;94.00
84310;BME280;74488;49.036;11.472;2024-03-08T04:33:06;97214.22;;;-2.03;94.28
84310;BME280;74488;49.036;11.472;2024-03-08T04:34:11;97220.28;;;-2.03;93.87
84310;BME280;74488;49.036;11.472;2024-03-08T04:35:12;97220.31;;;-2.04;94.58
84310;BME280;74488;49.036;11.472;2024-03-08T04:36:14;97171.88;;;-2.23;94.22
84310;BME280;74488;49.036;11.472;2024-03-08T04:37:16;97209.69;;;-1.94;93.75
84310;BME280;74488;49.036;11.472;2024-03-08T04:38:23;97213.22;;;-1.96;93.30
84310;BME280;74488;49.036;11.472;2024-03-08T04:39:26;97212.41;;;-2.00;93.30
84310;BME280;74488;49.036;11.472;2024-03-08T04:40:30;97208.09;;;-2.02;93.57
84310;BME280;74488;49.036;11.472;2024-03-08T04:41:32;97211.63;;;-2.05;94.05
84310;BME280;74488;49.036;11.472;2024-03-08T04:42:36;97211.66;;;-2.08;93.88
84310;BME280;74488;49.036;11.472;2024-03-08T04:43:39;97209.97;;;-2.10;93.97
84310;BME280;74488;49.036;11.472;2024-03-08T04:44:40;97178.00;;;-2.27;94.43
84310;BME280;74488;49.036;11.472;2024-03-08T04:45:42;97217.75;;;-2.07;94.65
84310;BME280;74488;49.036;11.472;2024-03-08T04:46:45;97213.38;;;-2.05;94.89
84310;BME280;74488;49.036;11.472;2024-03-08T04:47:46;97218.53;;;-2.01;95.20
84310;BME280;74488;49.036;11.472;2024-03-08T04:48:48;97211.63;;;-2.05;94.66
84310;BME280;74488;49.036;11.472;2024-03-08T04:49:50;97208.19;;;-2.07;94.93
84310;BME280;74488;49.036;11.472;2024-03-08T04:50:52;97220.28;;;-2.03;95.38
84310;BME280;74488;49.036;11.472;2024-03-08T04:51:55;97210.66;;;-1.99;95.09
84310;BME280;74488;49.036;11.472;2024-03-08T04:52:57;97218.50;;;-1.99;95.24
84310;BME280;74488;49.036;11.472;2024-03-08T04:53:59;97189.16;;;-2.15;94.99
84310;BME280;74488;49.036;11.472;2024-03-08T04:55:01;97212.34;;;-1.95;94.53
84310;BME280;74488;49.036;11.472;2024-03-08T04:56:06;97217.63;;;-1.98;94.27
84310;BME280;74488;49.036;11.472;2024-03-08T04:57:08;97213.25;;;-1.98;95.17
84310;BME280;74488;49.036;11.472;2024-03-08T04:58:10;97186.50;;;-2.13;94.97
84310;BME280;74488;49.036;11.472;2024-03-08T04:59:12;97212.34;;;-1.95;94.41
84310;BME280;74488;49.036;11.472;2024-03-08T05:00:14;97208.81;;;-1.93;94.68
84310;BME280;74488;49.036;11.472;2024-03-08T05:01:16;97203.63;;;-1.97;94.92
84310;BME280;74488;49.036;11.472;2024-03-08T05:02:18;97208.84;;;-1.96;94.79
84310;BME280;74488;49.036;11.472;2024-03-08T05:03:20;97212.25;;;-1.91;94.56
84310;BME280;74488;49.036;11.472;2024-03-08T05:04:22;97207.06;;;-1.92;94.06
84310;BME280;74488;49.036;11.472;2024-03-08T05:05:24;97201.84;;;-1.94;94.47
84310;BME280;74488;49.036;11.472;2024-03-08T05:06:26;97204.56;;;-1.98;94.11
84310;BME280;74488;49.036;11.472;2024-03-08T05:07:27;97201.94;;;-1.98;94.50
84310;BME280;74488;49.036;11.472;2024-03-08T05:08:29;97201.06;;;-1.99;94.54
84310;BME280;74488;49.036;11.472;2024-03-08T05:09:31;97204.50;;;-1.97;94.03
84310;BME280;74488;49.036;11.472;2024-03-08T05:10:33;97201.91;;;-1.97;94.76
84310;BME280;74488;49.036;11.472;2024-03-08T05:11:35;97197.59;;;-1.99;94.25
84310;BME280;74488;49.036;11.472;2024-03-08T05:12:36;97144.91;;;-2.28;94.69
84310;BME280;74488;49.036;11.472;2024-03-08T05:13:40;97196.72;;;-2.00;94.33
84310;BME280;74488;49.036;11.472;2024-03-08T05:14:42;97203.69;;;-2.00;94.52
84310;BME280;74488;49.036;11.472;2024-03-08T05:15:43;97196.72;;;-1.98;94.36
84310;BME280;74488;49.036;11.472;2024-03-08T05:16:46;97196.66;;;-1.97;93.81
84310;BME280;74488;49.036;11.472;2024-03-08T05:17:50;97201.97;;;-2.01;93.54
84310;BME280;74488;49.036;11.472;2024-03-08T05:18:52;97193.31;;;-2.05;93.99
84310;BME280;74488;49.036;11.472;2024-03-08T05:19:54;97200.34;;;-2.08;93.77
84310;BME280;74488;49.036;11.472;2024-03-08T05:20:55;97191.66;;;-2.10;93.92
84310;BME280;74488;49.036;11.472;2024-03-08T05:21:57;97199.56;;;-2.12;94.34
84310;BME280;74488;49.036;11.472;2024-03-08T05:22:58;97194.28;;;-2.10;94.72
84310;BME280;74488;49.036;11.472;2024-03-08T05:24:01;97182.97;;;-2.09;94.68
84310;BME280;74488;49.036;11.472;2024-03-08T05:25:03;97193.41;;;-2.09;94.65